Time;durP1;ratioP1;P1;durP2;ratioP2;P2;SDS_P1;SDS_P2;PMS_P1;PMS_P2;Temp;Humidity;BMP_temperature;BMP_pressure;BME280_temperature;BME280_humidity;BME280_pressure;Samples;Min_cycle;Max_cycle;Signal;HPM_P1;HPM_P2
2021/11/14 00:00:26;;;;;;;113.13;21.90;;;;;;;;;;5051109;28;20060;-71
2021/11/14 00:02:53;;;;;;;57.75;18.80;;;;;;;;;;5051289;28;20056;-71
2021/11/14 00:05:32;;;;;;;81.45;20.00;;;;;;;;;;5048165;28;20620;-71
2021/11/14 00:07:59;;;;;;;57.95;19.83;;;;;;;;;;5056516;28;20059;-71
2021/11/14 00:10:26;;;;;;;61.70;19.27;;;;;;;;;;5049445;28;20074;-71
2021/11/14 00:12:53;;;;;;;75.65;18.98;;;;;;;;;;5055584;28;20470;-71
2021/11/14 00:15:20;;;;;;;78.78;20.27;;;;;;;;;;5041517;28;20044;-71
2021/11/14 00:17:46;;;;;;;61.20;20.45;;;;;;;;;;5054185;28;20515;-71
2021/11/14 00:20:13;;;;;;;53.85;20.02;;;;;;;;;;5056222;28;20048;-71
2021/11/14 00:22:40;;;;;;;41.25;18.35;;;;;;;;;;5047832;28;20126;-71
2021/11/14 00:25:07;;;;;;;64.78;19.75;;;;;;;;;;5054875;28;20049;-71
2021/11/14 00:27:34;;;;;;;50.92;18.77;;;;;;;;;;5043697;28;20055;-71
2021/11/14 00:30:01;;;;;;;61.90;19.08;;;;;;;;;;5051247;28;20084;-71
2021/11/14 00:32:27;;;;;;;69.13;19.58;;;;;;;;;;5047933;28;20787;-71
2021/11/14 00:34:53;;;;;;;55.35;18.30;;;;;;;;;;5055959;28;20064;-71
2021/11/14 00:37:20;;;;;;;51.63;18.20;;;;;;;;;;5056502;28;20052;-71
2021/11/14 00:39:46;;;;;;;49.95;18.80;;;;;;;;;;5047952;28;20052;-71
2021/11/14 00:42:13;;;;;;;33.10;18.52;;;;;;;;;;5032937;28;20126;-71
2021/11/14 00:44:39;;;;;;;36.80;17.67;;;;;;;;;;5043541;28;20110;-70
2021/11/14 00:47:07;;;;;;;33.38;17.48;;;;;;;;;;5057382;28;20044;-71
2021/11/14 00:49:34;;;;;;;34.63;16.00;;;;;;;;;;5048307;28;20053;-70
2021/11/14 00:52:00;;;;;;;44.70;17.73;;;;;;;;;;5055924;28;20052;-71
2021/11/14 00:54:26;;;;;;;35.17;16.70;;;;;;;;;;5056338;28;20353;-71
2021/11/14 00:56:53;;;;;;;42.80;17.85;;;;;;;;;;5042116;28;20135;-71
2021/11/14 00:59:19;;;;;;;41.83;17.35;;;;;;;;;;5055452;28;20052;-71
2021/11/14 01:01:45;;;;;;;43.63;17.45;;;;;;;;;;5051933;28;20496;-71
2021/11/14 01:04:12;;;;;;;59.72;16.90;;;;;;;;;;5052402;28;20049;-71
2021/11/14 01:06:39;;;;;;;89.43;19.17;;;;;;;;;;5044296;28;20410;-71
2021/11/14 01:09:05;;;;;;;73.30;17.77;;;;;;;;;;5047204;28;20045;-71
2021/11/14 01:11:31;;;;;;;47.10;17.85;;;;;;;;;;5049027;28;20041;-72
2021/11/14 01:13:57;;;;;;;36.42;18.60;;;;;;;;;;5050045;28;20249;-71
2021/11/14 01:16:25;;;;;;;43.83;17.75;;;;;;;;;;5051734;28;20044;-70
2021/11/14 01:18:51;;;;;;;46.28;18.98;;;;;;;;;;5044828;28;20053;-71
2021/11/14 01:21:17;;;;;;;37.80;17.35;;;;;;;;;;5051444;28;20666;-71
2021/11/14 01:23:45;;;;;;;38.05;17.08;;;;;;;;;;5042807;28;20049;-71
2021/11/14 01:26:11;;;;;;;37.58;17.40;;;;;;;;;;5047130;28;20051;-71
2021/11/14 01:28:38;;;;;;;31.42;16.77;;;;;;;;;;5050607;28;20053;-71
2021/11/14 01:31:04;;;;;;;34.40;17.33;;;;;;;;;;5044909;28;20055;-71
2021/11/14 01:33:31;;;;;;;38.10;17.25;;;;;;;;;;5070017;28;20067;-70
2021/11/14 01:35:57;;;;;;;27.02;16.58;;;;;;;;;;5050552;28;20061;-70
2021/11/14 01:38:25;;;;;;;25.85;15.73;;;;;;;;;;5028173;28;20053;-70
2021/11/14 01:41:03;;;;;;;26.80;15.90;;;;;;;;;;5043856;28;20059;-71
2021/11/14 01:43:33;;;;;;;27.00;16.05;;;;;;;;;;5050512;28;20060;-71
2021/11/14 01:46:00;;;;;;;25.45;16.92;;;;;;;;;;5051126;28;20045;-71
2021/11/14 01:48:26;;;;;;;25.73;15.75;;;;;;;;;;5044544;28;20057;-70
2021/11/14 01:50:53;;;;;;;25.80;16.73;;;;;;;;;;5045699;28;20395;-71
2021/11/14 01:53:20;;;;;;;25.60;15.68;;;;;;;;;;5058348;28;20051;-70
2021/11/14 01:55:47;;;;;;;24.65;15.10;;;;;;;;;;5069428;28;20493;-70
2021/11/14 01:58:16;;;;;;;26.02;15.85;;;;;;;;;;5063072;28;20053;-71
2021/11/14 02:00:45;;;;;;;27.17;16.13;;;;;;;;;;5068883;28;20140;-70
2021/11/14 02:03:11;;;;;;;27.15;16.35;;;;;;;;;;5069079;28;20053;-71
2021/11/14 02:05:38;;;;;;;26.50;15.70;;;;;;;;;;5061350;28;20056;-71
2021/11/14 02:08:05;;;;;;;28.48;16.65;;;;;;;;;;5069763;28;20048;-71
2021/11/14 02:10:32;;;;;;;28.03;16.67;;;;;;;;;;5045886;28;20059;-71
2021/11/14 02:13:04;;;;;;;28.45;16.85;;;;;;;;;;5057277;28;20784;-71
2021/11/14 02:15:30;;;;;;;27.05;16.42;;;;;;;;;;5038372;28;20049;-71
2021/11/14 02:17:57;;;;;;;25.85;15.95;;;;;;;;;;5044253;28;20060;-71
2021/11/14 02:20:23;;;;;;;28.58;15.57;;;;;;;;;;5042779;28;20758;-71
2021/11/14 02:22:50;;;;;;;28.05;16.52;;;;;;;;;;5048062;28;20049;-71
2021/11/14 02:25:18;;;;;;;23.65;14.63;;;;;;;;;;5047516;28;20053;-71
2021/11/14 02:27:45;;;;;;;26.65;16.50;;;;;;;;;;5042026;28;20045;-71
2021/11/14 02:30:12;;;;;;;28.98;16.80;;;;;;;;;;5041735;28;20051;-71
2021/11/14 02:32:38;;;;;;;24.75;15.55;;;;;;;;;;5052714;28;20057;-70
2021/11/14 02:35:25;;;;;;;24.58;15.05;;;;;;;;;;5069345;28;20052;-71
2021/11/14 02:37:51;;;;;;;26.27;15.88;;;;;;;;;;5061424;28;20125;-71
2021/11/14 02:40:18;;;;;;;24.73;14.95;;;;;;;;;;5068964;28;20056;-71
2021/11/14 02:42:46;;;;;;;24.00;14.70;;;;;;;;;;5063878;28;20441;-71
2021/11/14 02:45:14;;;;;;;25.45;15.85;;;;;;;;;;5058229;28;20049;-72
2021/11/14 02:47:40;;;;;;;25.95;15.70;;;;;;;;;;5068360;28;20060;-72
2021/11/14 02:50:08;;;;;;;28.55;16.13;;;;;;;;;;5062495;28;20076;-72
2021/11/14 02:52:35;;;;;;;31.02;17.27;;;;;;;;;;5068506;28;20395;-72
2021/11/14 02:55:03;;;;;;;30.40;17.08;;;;;;;;;;5020168;28;1197118;-72
2021/11/14 02:57:30;;;;;;;36.47;17.98;;;;;;;;;;5062243;28;20055;-72
2021/11/14 02:59:56;;;;;;;33.40;17.13;;;;;;;;;;5062635;28;20044;-72
2021/11/14 03:02:23;;;;;;;34.17;17.98;;;;;;;;;;5068469;28;20059;-72
2021/11/14 03:04:49;;;;;;;34.60;18.33;;;;;;;;;;5069608;28;20900;-72
2021/11/14 03:07:16;;;;;;;34.00;18.80;;;;;;;;;;5061358;28;20067;-72
2021/11/14 03:09:42;;;;;;;38.13;19.05;;;;;;;;;;5064556;28;20109;-72
2021/11/14 03:12:09;;;;;;;32.40;17.65;;;;;;;;;;5058469;28;20424;-72
2021/11/14 03:14:35;;;;;;;36.70;19.20;;;;;;;;;;5068014;28;20051;-71
2021/11/14 03:17:02;;;;;;;36.35;19.38;;;;;;;;;;5053603;28;20626;-71
2021/11/14 03:19:28;;;;;;;35.45;19.27;;;;;;;;;;5049305;28;20045;-71
2021/11/14 03:21:55;;;;;;;34.75;18.45;;;;;;;;;;5048108;28;20053;-71
2021/11/14 03:24:21;;;;;;;43.35;20.85;;;;;;;;;;5048376;28;20064;-70
2021/11/14 03:26:47;;;;;;;38.28;20.58;;;;;;;;;;5063727;28;20056;-70
2021/11/14 03:29:14;;;;;;;38.08;20.02;;;;;;;;;;5062582;28;20048;-71
2021/11/14 03:31:43;;;;;;;42.08;20.08;;;;;;;;;;5068127;28;20088;-71
2021/11/14 03:34:09;;;;;;;42.65;21.90;;;;;;;;;;5062157;28;20094;-71
2021/11/14 03:36:36;;;;;;;42.53;21.02;;;;;;;;;;5068110;28;20387;-71
2021/11/14 03:39:04;;;;;;;46.90;20.73;;;;;;;;;;5063546;28;20493;-71
2021/11/14 03:41:33;;;;;;;44.38;21.70;;;;;;;;;;5057173;28;20051;-71
2021/11/14 03:43:59;;;;;;;44.65;21.90;;;;;;;;;;5068996;28;20049;-70
2021/11/14 03:46:26;;;;;;;47.70;22.08;;;;;;;;;;5061980;28;20049;-71
2021/11/14 03:48:53;;;;;;;48.35;23.60;;;;;;;;;;5068543;28;20044;-71
2021/11/14 03:51:20;;;;;;;54.25;24.10;;;;;;;;;;5059884;28;20297;-71
2021/11/14 03:53:47;;;;;;;48.17;22.60;;;;;;;;;;5061947;28;20068;-70
2021/11/14 03:56:13;;;;;;;50.88;24.52;;;;;;;;;;5067781;28;20052;-71
2021/11/14 03:58:40;;;;;;;45.35;21.88;;;;;;;;;;5061126;28;20051;-71
2021/11/14 04:01:08;;;;;;;47.80;22.92;;;;;;;;;;5068093;28;20060;-71
2021/11/14 04:03:35;;;;;;;49.50;24.30;;;;;;;;;;5061048;28;20052;-70
2021/11/14 04:06:02;;;;;;;51.25;24.30;;;;;;;;;;5064050;28;20053;-70
2021/11/14 04:08:28;;;;;;;49.75;23.25;;;;;;;;;;5057120;28;20044;-71
2021/11/14 04:10:56;;;;;;;49.03;23.50;;;;;;;;;;5067242;28;20059;-71
2021/11/14 04:13:22;;;;;;;53.00;23.98;;;;;;;;;;5064113;28;20055;-71
2021/11/14 04:15:49;;;;;;;47.80;22.83;;;;;;;;;;5066639;28;20045;-72
2021/11/14 04:18:16;;;;;;;50.70;23.50;;;;;;;;;;5068043;28;20055;-72
2021/11/14 04:20:46;;;;;;;51.33;23.60;;;;;;;;;;5057308;28;20171;-71
2021/11/14 04:23:13;;;;;;;52.85;24.40;;;;;;;;;;5063214;28;20496;-72
2021/11/14 04:25:39;;;;;;;51.08;24.17;;;;;;;;;;5058684;28;20051;-72
2021/11/14 04:28:09;;;;;;;54.20;25.13;;;;;;;;;;5068228;28;20055;-72
2021/11/14 04:30:35;;;;;;;45.45;22.35;;;;;;;;;;5061281;28;20055;-72
2021/11/14 04:33:02;;;;;;;51.70;23.40;;;;;;;;;;5066817;28;20489;-72
2021/11/14 04:35:28;;;;;;;54.65;24.65;;;;;;;;;;5061642;28;20062;-72
2021/11/14 04:37:55;;;;;;;51.40;24.13;;;;;;;;;;5058848;28;20048;-72
2021/11/14 04:40:23;;;;;;;48.75;24.10;;;;;;;;;;5067828;28;20521;-72
2021/11/14 04:42:49;;;;;;;49.55;23.95;;;;;;;;;;5061174;28;20063;-72
2021/11/14 04:45:16;;;;;;;50.70;23.45;;;;;;;;;;5067410;28;20052;-72
2021/11/14 04:47:42;;;;;;;57.53;24.52;;;;;;;;;;5057068;28;20812;-72
2021/11/14 04:50:10;;;;;;;55.20;25.15;;;;;;;;;;5062880;28;20489;-72
2021/11/14 04:52:37;;;;;;;57.55;26.67;;;;;;;;;;5067027;28;20049;-72
2021/11/14 04:55:04;;;;;;;53.00;24.20;;;;;;;;;;5061030;28;20052;-72
2021/11/14 04:57:30;;;;;;;48.70;22.88;;;;;;;;;;5068109;28;20041;-72
2021/11/14 04:59:57;;;;;;;59.30;25.48;;;;;;;;;;5059763;28;20049;-72
2021/11/14 05:02:23;;;;;;;44.15;21.90;;;;;;;;;;5063041;28;20544;-72
2021/11/14 05:04:50;;;;;;;46.83;23.77;;;;;;;;;;5055761;28;20056;-72
2021/11/14 05:07:16;;;;;;;48.40;24.20;;;;;;;;;;5067324;28;20048;-72
2021/11/14 05:09:43;;;;;;;51.17;25.08;;;;;;;;;;5049794;28;20056;-72
2021/11/14 05:12:13;;;;;;;53.95;24.95;;;;;;;;;;5060901;28;20048;-72
2021/11/14 05:14:39;;;;;;;48.53;24.42;;;;;;;;;;5066920;28;20059;-72
2021/11/14 05:17:06;;;;;;;55.47;25.15;;;;;;;;;;5045736;28;20488;-72
2021/11/14 05:19:33;;;;;;;57.83;25.63;;;;;;;;;;5046522;28;20049;-72
2021/11/14 05:21:59;;;;;;;49.75;24.75;;;;;;;;;;5040587;28;20055;-72
2021/11/14 05:24:25;;;;;;;51.25;24.70;;;;;;;;;;5045203;28;20049;-71
2021/11/14 05:26:54;;;;;;;61.78;25.98;;;;;;;;;;5047096;28;20061;-72
2021/11/14 05:29:20;;;;;;;;;;;;;;;;;;5036191;28;20053;-72
2021/11/14 05:31:46;;;;;;;58.83;24.98;;;;;;;;;;5042362;28;19921;-72
2021/11/14 05:34:13;;;;;;;55.05;25.58;;;;;;;;;;5040315;28;20402;-72
2021/11/14 05:36:39;;;;;;;56.58;25.35;;;;;;;;;;5047281;28;20048;-71
2021/11/14 05:39:05;;;;;;;54.15;25.23;;;;;;;;;;5041182;28;20414;-72
2021/11/14 05:41:32;;;;;;;50.40;24.52;;;;;;;;;;5047773;28;20061;-72
2021/11/14 05:43:58;;;;;;;52.40;24.38;;;;;;;;;;5037235;28;20053;-72
2021/11/14 05:46:24;;;;;;;51.80;23.48;;;;;;;;;;5042062;28;20057;-72
2021/11/14 05:48:51;;;;;;;57.08;24.70;;;;;;;;;;5047833;28;20410;-72
2021/11/14 05:51:19;;;;;;;49.88;23.75;;;;;;;;;;5044280;28;20048;-72
2021/11/14 05:53:45;;;;;;;48.28;22.85;;;;;;;;;;5049908;28;20084;-72
2021/11/14 05:56:11;;;;;;;50.85;23.58;;;;;;;;;;5062623;28;20071;-73
2021/11/14 06:03:45;;;;;;;52.42;24.65;;;;;;;;;;5070497;28;20051;-72
2021/11/14 06:06:11;;;;;;;50.53;24.17;;;;;;;;;;5070454;28;20060;-72
2021/11/14 06:08:37;;;;;;;48.67;24.48;;;;;;;;;;5064252;28;20158;-72
2021/11/14 06:11:04;;;;;;;51.25;24.50;;;;;;;;;;5067220;28;20098;-72
2021/11/14 06:13:32;;;;;;;51.88;24.98;;;;;;;;;;5058247;28;20055;-72
2021/11/14 06:15:59;;;;;;;40.67;19.83;;;;;;;;;;5069296;28;20109;-72
2021/11/14 06:18:26;;;;;;;46.90;22.63;;;;;;;;;;5064032;28;20052;-72
2021/11/14 06:20:52;;;;;;;50.78;24.55;;;;;;;;;;5052277;28;20066;-72
2021/11/14 06:23:19;;;;;;;49.75;23.23;;;;;;;;;;5070129;28;20053;-72
2021/11/14 06:25:45;;;;;;;48.08;23.73;;;;;;;;;;5057345;28;20048;-72
2021/11/14 06:28:11;;;;;;;50.30;23.48;;;;;;;;;;5065487;28;20055;-72
2021/11/14 06:30:38;;;;;;;47.58;22.73;;;;;;;;;;5062495;28;20375;-72
2021/11/14 06:33:05;;;;;;;48.38;24.65;;;;;;;;;;5069647;28;20048;-72
2021/11/14 06:35:32;;;;;;;45.85;22.67;;;;;;;;;;5063513;28;20059;-72
2021/11/14 06:37:58;;;;;;;48.70;23.40;;;;;;;;;;5069207;28;20062;-72
2021/11/14 06:40:25;;;;;;;40.15;20.73;;;;;;;;;;5063839;28;20692;-72
2021/11/14 06:42:52;;;;;;;47.35;23.88;;;;;;;;;;5046284;28;20056;-72
2021/11/14 06:45:18;;;;;;;51.42;23.67;;;;;;;;;;5070022;28;20466;-73
2021/11/14 06:47:44;;;;;;;46.35;21.83;;;;;;;;;;5062212;28;20044;-72
2021/11/14 06:50:11;;;;;;;44.85;22.25;;;;;;;;;;5069990;28;20048;-72
2021/11/14 06:52:38;;;;;;;40.00;20.60;;;;;;;;;;5058865;28;20060;-72
2021/11/14 06:55:06;;;;;;;47.78;23.30;;;;;;;;;;5058093;28;20052;-73
2021/11/14 06:57:32;;;;;;;42.97;22.50;;;;;;;;;;5044537;28;20057;-72
2021/11/14 06:59:58;;;;;;;43.72;21.30;;;;;;;;;;5045917;28;20060;-71
2021/11/14 07:02:24;;;;;;;44.53;20.25;;;;;;;;;;5066547;28;20052;-72
2021/11/14 07:04:51;;;;;;;43.25;20.90;;;;;;;;;;5062554;28;20044;-72
2021/11/14 07:07:17;;;;;;;46.60;21.60;;;;;;;;;;5064848;28;20152;-71
2021/11/14 07:09:43;;;;;;;44.70;21.27;;;;;;;;;;5057807;28;20067;-71
2021/11/14 07:12:11;;;;;;;48.35;21.85;;;;;;;;;;5069160;28;20058;-71
2021/11/14 07:14:37;;;;;;;39.13;19.10;;;;;;;;;;5063239;28;20044;-71
2021/11/14 07:17:03;;;;;;;42.63;22.35;;;;;;;;;;5068934;28;20052;-73
2021/11/14 07:19:30;;;;;;;38.13;19.63;;;;;;;;;;5051532;28;20052;-72
2021/11/14 07:21:57;;;;;;;38.40;19.75;;;;;;;;;;5056755;28;20049;-72
2021/11/14 07:24:23;;;;;;;44.95;22.15;;;;;;;;;;5064065;28;20052;-72
2021/11/14 07:26:49;;;;;;;40.63;20.77;;;;;;;;;;5062597;28;20045;-72
2021/11/14 07:29:16;;;;;;;40.90;20.65;;;;;;;;;;5061946;28;20040;-72
2021/11/14 07:31:42;;;;;;;41.17;19.40;;;;;;;;;;5042639;28;20490;-72
2021/11/14 07:34:09;;;;;;;38.35;19.27;;;;;;;;;;5046522;28;20060;-72
2021/11/14 07:36:35;;;;;;;37.63;18.70;;;;;;;;;;5042441;28;20060;-73
2021/11/14 07:39:03;;;;;;;42.42;19.48;;;;;;;;;;5042539;28;20053;-72
2021/11/14 07:41:29;;;;;;;37.63;18.40;;;;;;;;;;5048244;28;20049;-72
2021/11/14 07:43:55;;;;;;;38.33;18.25;;;;;;;;;;5041990;28;21072;-72
2021/11/14 07:46:22;;;;;;;38.88;18.67;;;;;;;;;;5048816;28;20065;-72
2021/11/14 07:48:48;;;;;;;35.58;17.20;;;;;;;;;;5040684;28;20060;-72
2021/11/14 07:51:14;;;;;;;36.75;17.33;;;;;;;;;;5048216;28;20053;-72
2021/11/14 07:53:41;;;;;;;34.60;17.02;;;;;;;;;;5047826;28;20053;-72
2021/11/14 07:56:07;;;;;;;34.47;17.05;;;;;;;;;;5060895;28;20416;-72
2021/11/14 07:58:33;;;;;;;35.55;17.35;;;;;;;;;;5047803;28;20044;-72
2021/11/14 08:01:00;;;;;;;33.08;16.08;;;;;;;;;;5050495;28;20057;-72
2021/11/14 08:03:31;;;;;;;39.17;16.58;;;;;;;;;;5050474;28;20052;-72
2021/11/14 08:05:59;;;;;;;36.63;16.10;;;;;;;;;;5043524;28;20041;-72
2021/11/14 08:08:25;;;;;;;36.08;16.75;;;;;;;;;;5051522;28;20049;-72
2021/11/14 08:10:52;;;;;;;34.70;16.00;;;;;;;;;;5046791;28;20128;-72
2021/11/14 08:13:18;;;;;;;37.10;16.80;;;;;;;;;;5047696;28;20040;-72
2021/11/14 08:15:45;;;;;;;35.17;17.10;;;;;;;;;;5063258;28;20127;-72
2021/11/14 08:18:11;;;;;;;37.08;16.40;;;;;;;;;;5061375;28;20048;-72
2021/11/14 08:20:37;;;;;;;38.83;17.55;;;;;;;;;;5063271;28;20052;-72
2021/11/14 08:23:05;;;;;;;36.20;16.38;;;;;;;;;;5041781;28;20048;-72
2021/11/14 08:25:31;;;;;;;34.92;16.35;;;;;;;;;;5027205;28;20148;-72
2021/11/14 08:27:58;;;;;;;34.95;15.82;;;;;;;;;;5041431;28;20044;-72
2021/11/14 08:30:24;;;;;;;38.25;16.35;;;;;;;;;;5041122;28;20055;-72
2021/11/14 08:32:51;;;;;;;37.78;16.60;;;;;;;;;;5047821;28;20061;-72
2021/11/14 08:35:18;;;;;;;38.25;16.13;;;;;;;;;;5041091;28;20056;-72
2021/11/14 08:37:45;;;;;;;36.17;16.83;;;;;;;;;;5047375;28;20045;-72
2021/11/14 08:40:13;;;;;;;39.08;16.70;;;;;;;;;;5040731;28;20049;-72
2021/11/14 08:42:39;;;;;;;34.17;16.23;;;;;;;;;;5027421;28;20049;-71
2021/11/14 08:45:06;;;;;;;39.60;17.40;;;;;;;;;;5046558;28;20045;-71
2021/11/14 08:47:33;;;;;;;30.92;15.02;;;;;;;;;;5046279;28;20055;-72
2021/11/14 08:49:59;;;;;;;39.47;16.92;;;;;;;;;;5050459;28;20041;-72
2021/11/14 08:52:27;;;;;;;32.03;14.70;;;;;;;;;;5040975;28;20059;-72
2021/11/14 08:54:53;;;;;;;33.03;15.25;;;;;;;;;;5050952;28;20060;-72
2021/11/14 08:57:19;;;;;;;36.35;16.52;;;;;;;;;;5039335;28;20056;-72
2021/11/14 08:59:47;;;;;;;34.47;16.35;;;;;;;;;;5067282;28;20057;-72
2021/11/14 09:02:13;;;;;;;30.88;14.77;;;;;;;;;;5045859;28;20051;-71
2021/11/14 09:04:40;;;;;;;31.67;16.10;;;;;;;;;;5046468;28;20110;-72
2021/11/14 09:07:07;;;;;;;33.05;15.38;;;;;;;;;;5046055;28;20049;-72
2021/11/14 09:09:34;;;;;;;33.45;14.85;;;;;;;;;;5035394;28;20052;-72
2021/11/14 09:12:00;;;;;;;30.88;14.82;;;;;;;;;;5044804;28;20132;-72
2021/11/14 09:14:26;;;;;;;30.20;14.85;;;;;;;;;;5043473;28;20049;-72
2021/11/14 09:16:53;;;;;;;33.08;15.07;;;;;;;;;;5067211;28;20059;-72
2021/11/14 09:19:21;;;;;;;31.85;14.25;;;;;;;;;;5061969;28;20056;-71
2021/11/14 09:21:47;;;;;;;32.10;14.35;;;;;;;;;;5062432;28;20056;-72
2021/11/14 09:24:14;;;;;;;28.60;14.07;;;;;;;;;;5064633;28;20051;-72
2021/11/14 09:26:40;;;;;;;32.28;14.00;;;;;;;;;;5062072;28;20415;-72
2021/11/14 09:29:07;;;;;;;33.55;14.35;;;;;;;;;;5071240;28;20055;-72
2021/11/14 09:31:34;;;;;;;30.13;14.02;;;;;;;;;;5064394;28;20048;-72
2021/11/14 09:34:01;;;;;;;32.47;14.50;;;;;;;;;;5071118;28;20098;-72
2021/11/14 09:36:31;;;;;;;32.72;14.27;;;;;;;;;;5059969;28;20890;-72
2021/11/14 09:38:57;;;;;;;;;;;;;;;;;;5066376;28;20528;-72
2021/11/14 09:41:23;;;;;;;30.83;14.88;;;;;;;;;;5071036;28;20399;-72
2021/11/14 09:43:51;;;;;;;27.45;13.65;;;;;;;;;;5063178;28;20052;-72
2021/11/14 09:46:36;;;;;;;30.83;13.02;;;;;;;;;;5070948;28;20390;-72
2021/11/14 09:49:05;;;;;;;31.95;15.50;;;;;;;;;;5064301;28;20048;-72
2021/11/14 09:51:31;;;;;;;35.25;15.80;;;;;;;;;;5058180;28;20051;-72
2021/11/14 09:53:57;;;;;;;34.67;15.73;;;;;;;;;;5026581;28;20049;-72
2021/11/14 09:56:24;;;;;;;32.17;14.15;;;;;;;;;;5069815;28;20059;-72
2021/11/14 09:58:50;;;;;;;32.08;14.85;;;;;;;;;;5063855;28;20064;-72
2021/11/14 10:01:16;;;;;;;34.78;15.52;;;;;;;;;;5068747;28;20762;-72
2021/11/14 10:03:45;;;;;;;32.33;14.55;;;;;;;;;;5070250;28;20054;-73
2021/11/14 10:06:11;;;;;;;34.33;15.23;;;;;;;;;;5063416;28;20067;-71
2021/11/14 10:08:40;;;;;;;34.13;15.55;;;;;;;;;;5051714;28;20053;-72
2021/11/14 10:11:07;;;;;;;30.27;14.57;;;;;;;;;;5038718;28;20103;-71
2021/11/14 10:13:35;;;;;;;34.40;15.45;;;;;;;;;;5055536;28;20056;-70
2021/11/14 10:16:06;;;;;;;34.28;15.60;;;;;;;;;;5063172;28;20052;-71
2021/11/14 10:18:33;;;;;;;29.50;14.05;;;;;;;;;;5070144;28;20088;-72
2021/11/14 10:21:02;;;;;;;36.33;16.42;;;;;;;;;;5070354;28;20055;-71
2021/11/14 10:23:30;;;;;;;37.33;16.60;;;;;;;;;;5063979;28;20059;-72
2021/11/14 10:25:57;;;;;;;36.13;16.52;;;;;;;;;;5042554;28;20055;-71
2021/11/14 10:28:27;;;;;;;37.20;16.17;;;;;;;;;;5063328;28;20059;-71
2021/11/14 10:30:54;;;;;;;33.05;16.48;;;;;;;;;;5051556;28;20087;-71
2021/11/14 10:33:21;;;;;;;34.55;16.42;;;;;;;;;;5063362;28;20052;-71
2021/11/14 10:35:49;;;;;;;34.40;15.32;;;;;;;;;;5069119;28;20052;-71
2021/11/14 10:38:18;;;;;;;39.35;17.60;;;;;;;;;;5061025;28;20063;-72
2021/11/14 10:40:46;;;;;;;35.17;16.33;;;;;;;;;;5064487;28;20048;-71
2021/11/14 10:43:13;;;;;;;43.55;17.73;;;;;;;;;;5069161;28;20132;-72
2021/11/14 10:45:40;;;;;;;38.80;16.83;;;;;;;;;;5061213;28;20533;-72
2021/11/14 10:48:08;;;;;;;37.30;18.33;;;;;;;;;;5068806;28;20078;-71
2021/11/14 10:50:36;;;;;;;35.40;16.38;;;;;;;;;;5062140;28;20057;-72
2021/11/14 10:53:04;;;;;;;34.95;14.90;;;;;;;;;;5063402;28;20494;-71
2021/11/14 10:55:32;;;;;;;35.60;16.63;;;;;;;;;;5061433;28;20052;-71
2021/11/14 10:57:58;;;;;;;39.05;17.60;;;;;;;;;;5069113;28;20440;-71
2021/11/14 11:00:27;;;;;;;38.00;17.88;;;;;;;;;;5045046;28;20052;-71
2021/11/14 11:02:53;;;;;;;32.75;16.85;;;;;;;;;;5042916;28;20443;-70
2021/11/14 11:05:21;;;;;;;47.30;17.60;;;;;;;;;;5044220;28;20164;-70
2021/11/14 11:07:58;;;;;;;38.58;17.05;;;;;;;;;;5036301;28;20041;-72
2021/11/14 11:10:25;;;;;;;36.28;17.17;;;;;;;;;;5048241;28;20409;-71
2021/11/14 11:12:52;;;;;;;35.90;15.98;;;;;;;;;;5046637;28;20075;-70
2021/11/14 11:15:22;;;;;;;38.28;18.58;;;;;;;;;;5052038;28;20155;-71
2021/11/14 11:17:50;;;;;;;43.03;18.55;;;;;;;;;;5053867;28;20060;-71
2021/11/14 11:20:21;;;;;;;38.45;17.75;;;;;;;;;;5040786;28;20063;-71
2021/11/14 11:22:47;;;;;;;37.47;18.73;;;;;;;;;;5043814;28;20089;-71
2021/11/14 11:25:13;;;;;;;43.55;20.00;;;;;;;;;;5039564;28;20052;-71
2021/11/14 11:27:40;;;;;;;46.08;19.98;;;;;;;;;;5050937;28;20056;-71
2021/11/14 11:30:07;;;;;;;39.78;16.75;;;;;;;;;;5041049;28;20045;-71
2021/11/14 11:32:34;;;;;;;46.83;19.80;;;;;;;;;;5050473;28;20061;-71
2021/11/14 11:35:01;;;;;;;41.83;20.65;;;;;;;;;;5036587;28;20053;-70
2021/11/14 11:37:27;;;;;;;37.90;17.75;;;;;;;;;;5047456;28;20049;-70
2021/11/14 11:39:54;;;;;;;41.53;19.17;;;;;;;;;;5048215;28;20059;-70
2021/11/14 11:42:21;;;;;;;43.13;20.02;;;;;;;;;;5041753;28;20607;-71
2021/11/14 11:44:55;;;;;;;45.08;20.50;;;;;;;;;;5031372;28;20474;-71
2021/11/14 11:47:22;;;;;;;39.42;18.63;;;;;;;;;;5035933;28;20052;-70
2021/11/14 11:49:51;;;;;;;45.92;21.30;;;;;;;;;;5043393;28;20063;-70
2021/11/14 11:52:19;;;;;;;34.90;16.13;;;;;;;;;;5041754;28;20043;-70
2021/11/14 11:54:48;;;;;;;48.78;21.05;;;;;;;;;;5054369;28;20053;-70
2021/11/14 11:57:15;;;;;;;49.03;21.55;;;;;;;;;;5068017;28;20792;-70
2021/11/14 11:59:43;;;;;;;43.28;19.92;;;;;;;;;;5060625;28;20630;-70
2021/11/14 12:02:12;;;;;;;43.38;20.45;;;;;;;;;;5063314;28;20102;-71
2021/11/14 12:04:40;;;;;;;43.33;20.88;;;;;;;;;;5055859;28;20056;-71
2021/11/14 12:07:09;;;;;;;47.50;21.47;;;;;;;;;;5067905;28;20536;-71
2021/11/14 12:09:40;;;;;;;47.75;21.08;;;;;;;;;;5061812;28;20059;-71
2021/11/14 12:12:27;;;;;;;43.47;20.38;;;;;;;;;;5068287;28;20474;-71
2021/11/14 12:15:19;;;;;;;42.03;19.23;;;;;;;;;;5045218;28;20052;-71
2021/11/14 12:17:49;;;;;;;43.58;19.65;;;;;;;;;;5052791;28;20060;-70
2021/11/14 12:20:16;;;;;;;43.85;19.48;;;;;;;;;;5047148;28;20056;-71
2021/11/14 12:22:42;;;;;;;45.33;19.45;;;;;;;;;;5044917;28;20067;-72
2021/11/14 12:25:09;;;;;;;43.95;19.10;;;;;;;;;;5057464;28;20052;-71
2021/11/14 12:27:36;;;;;;;42.20;18.77;;;;;;;;;;5032301;28;20048;-71
2021/11/14 12:30:10;;;;;;;41.42;20.00;;;;;;;;;;5055822;28;20072;-72
2021/11/14 12:32:47;;;;;;;40.83;19.40;;;;;;;;;;5046989;28;20048;-71
2021/11/14 12:35:17;;;;;;;43.03;19.60;;;;;;;;;;5056273;28;20079;-72
2021/11/14 12:37:45;;;;;;;40.28;19.90;;;;;;;;;;5050253;28;20044;-72
2021/11/14 12:40:13;;;;;;;58.33;30.45;;;;;;;;;;5057005;28;20052;-72
2021/11/14 12:42:40;;;;;;;42.47;18.95;;;;;;;;;;5056232;28;20052;-72
2021/11/14 12:45:07;;;;;;;47.03;23.52;;;;;;;;;;5042658;28;20056;-72
2021/11/14 12:47:41;;;;;;;40.38;18.88;;;;;;;;;;5056307;28;20041;-72
2021/11/14 12:50:12;;;;;;;48.00;23.15;;;;;;;;;;5048458;28;20048;-72
2021/11/14 12:52:39;;;;;;;43.35;20.00;;;;;;;;;;5056399;28;20218;-72
2021/11/14 12:55:10;;;;;;;42.10;19.30;;;;;;;;;;5049735;28;20500;-72
2021/11/14 12:57:39;;;;;;;40.03;19.42;;;;;;;;;;5052861;28;20088;-72
2021/11/14 13:00:05;;;;;;;51.47;21.75;;;;;;;;;;5056652;28;20436;-73
2021/11/14 13:02:32;;;;;;;42.40;18.77;;;;;;;;;;5052314;28;20061;-72
2021/11/14 13:05:08;;;;;;;41.45;21.20;;;;;;;;;;5063465;28;20044;-72
2021/11/14 13:07:35;;;;;;;44.35;19.58;;;;;;;;;;5056027;28;20048;-72
2021/11/14 13:10:02;;;;;;;37.40;20.27;;;;;;;;;;5061760;28;20067;-72
2021/11/14 13:12:29;;;;;;;36.20;18.08;;;;;;;;;;5048034;28;20044;-72
2021/11/14 13:14:56;;;;;;;36.45;18.23;;;;;;;;;;5056930;28;20079;-72
2021/11/14 13:17:23;;;;;;;36.33;16.40;;;;;;;;;;5060843;28;20056;-72
2021/11/14 13:19:49;;;;;;;35.85;18.30;;;;;;;;;;5053071;28;20044;-73
2021/11/14 13:22:16;;;;;;;39.72;18.52;;;;;;;;;;5060523;28;20345;-72
2021/11/14 13:24:48;;;;;;;36.78;18.85;;;;;;;;;;5049063;28;20536;-72
2021/11/14 13:27:15;;;;;;;36.70;18.63;;;;;;;;;;5052606;28;20056;-72
2021/11/14 13:29:43;;;;;;;32.03;17.23;;;;;;;;;;5034155;28;20048;-72
2021/11/14 13:32:12;;;;;;;33.55;15.95;;;;;;;;;;5058892;28;20097;-72
2021/11/14 13:34:39;;;;;;;34.58;17.25;;;;;;;;;;5058263;28;20064;-72
2021/11/14 13:37:16;;;;;;;32.63;16.07;;;;;;;;;;5051418;28;20063;-72
2021/11/14 13:39:46;;;;;;;34.58;17.52;;;;;;;;;;5054509;28;20049;-72
2021/11/14 13:42:15;;;;;;;32.63;17.95;;;;;;;;;;5046171;28;20417;-72
2021/11/14 13:44:43;;;;;;;46.55;25.20;;;;;;;;;;5057898;28;20421;-72
2021/11/14 13:47:11;;;;;;;38.42;19.48;;;;;;;;;;5050300;28;20048;-72
2021/11/14 13:49:38;;;;;;;29.75;16.27;;;;;;;;;;5056753;28;20049;-72
2021/11/14 13:52:08;;;;;;;34.08;16.55;;;;;;;;;;5050848;28;20490;-72
2021/11/14 13:54:44;;;;;;;29.67;15.48;;;;;;;;;;5049492;28;20055;-72
2021/11/14 13:57:10;;;;;;;26.70;13.88;;;;;;;;;;5058635;28;20425;-72
2021/11/14 13:59:39;;;;;;;29.73;14.63;;;;;;;;;;5052525;28;20052;-72
2021/11/14 14:02:07;;;;;;;28.65;14.48;;;;;;;;;;5058966;28;20048;-72
2021/11/14 14:04:48;;;;;;;30.45;14.68;;;;;;;;;;5033627;28;20170;-72
2021/11/14 14:07:14;;;;;;;29.75;15.30;;;;;;;;;;5055056;28;20048;-71
2021/11/14 14:09:50;;;;;;;25.73;14.30;;;;;;;;;;5046638;28;20569;-71
2021/11/14 14:12:17;;;;;;;30.50;15.05;;;;;;;;;;5059591;28;20519;-72
2021/11/14 14:14:43;;;;;;;33.97;15.18;;;;;;;;;;5058959;28;20405;-71
2021/11/14 14:17:10;;;;;;;31.23;15.10;;;;;;;;;;5051923;28;20051;-72
2021/11/14 14:19:36;;;;;;;26.13;14.10;;;;;;;;;;5059890;28;20071;-71
2021/11/14 14:22:03;;;;;;;29.90;16.45;;;;;;;;;;5046846;28;20919;-70
2021/11/14 14:24:29;;;;;;;28.10;14.65;;;;;;;;;;5052850;28;20049;-71